createdAt,value
2023-02-19T00:01:53.550Z,15.55
2023-02-19T00:04:22.434Z,24.25
2023-02-19T00:06:49.449Z,18.27
2023-02-19T00:09:18.468Z,21.83
2023-02-19T00:11:46.432Z,20.30
2023-02-19T00:14:18.055Z,21.92
2023-02-19T00:16:44.619Z,14.52
2023-02-19T00:19:14.095Z,16.02
2023-02-19T00:21:40.689Z,15.90
2023-02-19T00:24:08.464Z,18.33
2023-02-19T00:26:35.325Z,17.05
2023-02-19T00:29:02.311Z,14.73
2023-02-19T00:31:33.807Z,13.48
2023-02-19T00:34:06.496Z,17.02
2023-02-19T00:36:36.246Z,16.00
2023-02-19T00:39:06.949Z,18.92
2023-02-19T00:41:34.164Z,9.70
2023-02-19T00:44:03.471Z,13.85
2023-02-19T00:46:35.752Z,12.10
2023-02-19T00:49:05.930Z,15.17
2023-02-19T00:51:37.242Z,14.60
2023-02-19T00:54:05.545Z,13.75
2023-02-19T00:56:32.903Z,15.48
2023-02-19T00:58:59.561Z,17.33
2023-02-19T01:01:26.810Z,13.30
2023-02-19T01:03:56.200Z,13.43
2023-02-19T01:06:22.766Z,13.55
2023-02-19T01:08:49.515Z,16.25
2023-02-19T01:11:17.439Z,22.58
2023-02-19T01:13:44.474Z,16.60
2023-02-19T01:16:15.149Z,15.60
2023-02-19T01:18:46.397Z,14.13
2023-02-19T01:21:16.008Z,13.30
2023-02-19T01:23:43.150Z,16.13
2023-02-19T01:26:13.809Z,20.60
2023-02-19T01:28:41.122Z,17.75
2023-02-19T01:31:12.431Z,20.65
2023-02-19T01:33:39.703Z,13.40
2023-02-19T01:36:07.559Z,20.35
2023-02-19T01:38:34.200Z,18.73
2023-02-19T01:41:07.309Z,17.98
2023-02-19T01:43:35.838Z,15.90
2023-02-19T01:46:02.827Z,18.80
2023-02-19T01:48:37.714Z,15.82
2023-02-19T01:51:12.807Z,16.87
2023-02-19T01:53:43.445Z,10.93
2023-02-19T01:56:10.946Z,14.18
2023-02-19T01:58:38.378Z,14.35
2023-02-19T02:01:09.415Z,19.23
2023-02-19T02:03:38.430Z,13.83
2023-02-19T02:06:13.172Z,10.30
2023-02-19T02:08:59.012Z,14.23
2023-02-19T02:11:25.766Z,15.00
2023-02-19T02:13:53.133Z,13.23
2023-02-19T02:16:19.804Z,12.33
2023-02-19T02:19:12.171Z,13.38
2023-02-19T02:21:57.334Z,15.43
2023-02-19T02:24:53.086Z,13.27
2023-02-19T02:27:52.348Z,13.70
2023-02-19T02:30:34.316Z,8.83
2023-02-19T02:33:12.459Z,12.95
2023-02-19T02:35:47.833Z,16.52
2023-02-19T02:38:16.939Z,11.57
2023-02-19T02:40:45.254Z,15.20
2023-02-19T02:43:12.565Z,12.17
2023-02-19T02:45:42.182Z,9.23
2023-02-19T02:48:30.281Z,8.98
2023-02-19T02:51:06.434Z,15.32
2023-02-19T02:54:02.089Z,10.98
2023-02-19T02:56:30.714Z,9.60
2023-02-19T02:59:00.877Z,10.68
2023-02-19T03:02:14.665Z,8.73
2023-02-19T03:05:11.981Z,8.57
2023-02-19T03:07:56.450Z,12.80
2023-02-19T03:10:36.315Z,9.07
2023-02-19T03:13:29.325Z,10.80
2023-02-19T03:16:24.735Z,8.70
2023-02-19T03:19:13.462Z,8.25
2023-02-19T03:21:42.552Z,10.52
2023-02-19T03:24:31.017Z,12.90
2023-02-19T03:27:07.216Z,9.85
2023-02-19T03:29:37.574Z,9.10
2023-02-19T03:32:34.072Z,11.80
2023-02-19T03:35:07.234Z,9.95
2023-02-19T03:37:41.996Z,15.30
2023-02-19T03:40:17.352Z,12.10
2023-02-19T03:43:13.617Z,9.82
2023-02-19T03:45:50.791Z,10.88
2023-02-19T03:48:35.104Z,11.98
2023-02-19T03:51:34.111Z,13.20
2023-02-19T03:54:23.986Z,12.65
2023-02-19T03:56:58.670Z,12.77
2023-02-19T03:59:54.139Z,11.82
2023-02-19T04:02:38.534Z,10.50
2023-02-19T04:05:14.616Z,12.60
2023-02-19T04:07:46.145Z,9.73
2023-02-19T04:10:14.324Z,6.45
2023-02-19T04:12:45.045Z,9.35
2023-02-19T04:15:17.852Z,10.48
2023-02-19T04:17:51.183Z,10.67
2023-02-19T04:20:20.090Z,16.67
2023-02-19T04:22:47.415Z,10.77
2023-02-19T04:25:14.297Z,13.35
2023-02-19T04:27:44.538Z,16.08
2023-02-19T04:30:16.909Z,9.23
2023-02-19T04:32:48.976Z,13.38
2023-02-19T04:35:15.642Z,11.38
2023-02-19T04:37:42.350Z,11.52
2023-02-19T04:40:09.821Z,11.40
2023-02-19T04:42:36.359Z,6.17
2023-02-19T04:45:02.996Z,9.50
2023-02-19T04:47:31.413Z,10.15
2023-02-19T04:49:58.119Z,9.50
2023-02-19T04:52:24.726Z,7.68
2023-02-19T04:54:51.310Z,10.87
2023-02-19T04:57:20.184Z,8.05
2023-02-19T04:59:49.299Z,6.78
2023-02-19T05:02:16.065Z,12.10
2023-02-19T05:04:45.434Z,9.18
2023-02-19T05:07:12.544Z,11.00
2023-02-19T05:09:39.144Z,9.60
2023-02-19T05:12:05.998Z,6.72
2023-02-19T05:14:32.560Z,9.30
2023-02-19T05:16:59.181Z,10.43
2023-02-19T05:19:27.987Z,8.50
2023-02-19T05:21:54.628Z,14.15
2023-02-19T05:24:21.319Z,9.65
2023-02-19T05:26:48.699Z,12.75
2023-02-19T05:29:15.439Z,14.35
2023-02-19T05:31:42.333Z,8.83
2023-02-19T05:34:12.109Z,10.55
2023-02-19T05:36:39.439Z,12.32
2023-02-19T05:39:07.481Z,6.65
2023-02-19T05:41:34.223Z,11.07
2023-02-19T05:44:00.810Z,11.97
2023-02-19T05:46:32.553Z,9.88
2023-02-19T05:49:01.656Z,8.15
2023-02-19T05:51:28.461Z,14.45
2023-02-19T05:53:56.551Z,6.90
2023-02-19T05:56:26.210Z,12.97
2023-02-19T05:58:54.732Z,14.88
2023-02-19T06:01:23.552Z,11.52
2023-02-19T06:03:50.469Z,10.88
2023-02-19T06:06:19.275Z,8.77
2023-02-19T06:08:50.004Z,13.50
2023-02-19T06:11:19.595Z,10.43
2023-02-19T06:13:46.861Z,9.10
2023-02-19T06:16:13.726Z,9.63
2023-02-19T06:18:43.100Z,10.40
2023-02-19T06:21:11.426Z,13.77
2023-02-19T06:23:39.404Z,8.52
2023-02-19T06:26:20.388Z,10.95
2023-02-19T06:28:49.426Z,14.55
2023-02-19T06:31:16.680Z,7.70
2023-02-19T06:33:43.734Z,10.60
2023-02-19T06:36:16.403Z,8.82
2023-02-19T06:38:43.190Z,12.27
2023-02-19T06:41:10.958Z,8.85
2023-02-19T06:43:38.129Z,20.77
2023-02-19T06:46:06.650Z,9.57
2023-02-19T06:48:34.446Z,10.95
2023-02-19T06:51:01.075Z,11.30
2023-02-19T06:53:27.808Z,10.80
2023-02-19T06:55:58.655Z,13.40
2023-02-19T06:58:25.490Z,12.13
2023-02-19T07:00:53.975Z,9.52
2023-02-19T07:03:20.730Z,9.38
2023-02-19T07:05:47.746Z,12.43
2023-02-19T07:08:14.496Z,12.40
2023-02-19T07:10:41.081Z,15.33
2023-02-19T07:13:07.675Z,12.85
2023-02-19T07:15:34.258Z,13.93
2023-02-19T07:18:00.903Z,14.25
2023-02-19T07:20:27.395Z,17.17
2023-02-19T07:22:57.291Z,15.07
2023-02-19T07:25:23.944Z,11.45
2023-02-19T07:27:50.500Z,15.18
2023-02-19T07:30:17.170Z,12.23
2023-02-19T07:32:45.387Z,13.93
2023-02-19T07:35:12.997Z,14.90
2023-02-19T07:37:41.748Z,10.55
2023-02-19T07:40:08.783Z,15.32
2023-02-19T07:42:35.436Z,10.75
2023-02-19T07:45:02.009Z,15.52
2023-02-19T07:47:29.862Z,14.00
2023-02-19T07:49:56.422Z,10.45
2023-02-19T07:52:23.090Z,11.48
2023-02-19T07:54:49.651Z,14.23
2023-02-19T07:57:16.135Z,12.82
2023-02-19T07:59:42.674Z,20.43
2023-02-19T08:02:35.781Z,11.63
2023-02-19T08:05:03.705Z,17.80
2023-02-19T08:07:37.379Z,25.23
2023-02-19T08:10:26.960Z,15.32
2023-02-19T08:13:19.428Z,17.83
2023-02-19T08:15:57.787Z,16.77
2023-02-19T08:18:30.663Z,23.40
2023-02-19T08:20:58.721Z,17.88
2023-02-19T08:23:26.553Z,17.98
2023-02-19T08:25:56.708Z,15.00
2023-02-19T08:28:23.611Z,22.85
2023-02-19T08:30:52.528Z,18.05
2023-02-19T08:33:23.619Z,13.75
2023-02-19T08:35:50.487Z,15.38
2023-02-19T08:38:18.970Z,13.73
2023-02-19T08:40:45.578Z,13.98
2023-02-19T08:43:14.226Z,14.18
2023-02-19T08:45:45.805Z,10.00
2023-02-19T08:48:12.489Z,13.75
2023-02-19T08:50:39.507Z,13.67
2023-02-19T08:53:07.173Z,15.88
2023-02-19T08:55:34.196Z,10.23
2023-02-19T08:58:01.254Z,14.85
2023-02-19T09:00:27.982Z,14.40
2023-02-19T09:02:54.596Z,18.43
2023-02-19T09:05:21.271Z,18.63
2023-02-19T09:07:50.023Z,20.35
2023-02-19T09:10:16.690Z,14.95
2023-02-19T09:12:43.300Z,18.27
2023-02-19T09:15:10.030Z,18.30
2023-02-19T09:17:38.359Z,19.42
2023-02-19T09:20:05.346Z,17.67
2023-02-19T09:22:31.929Z,15.60
2023-02-19T09:24:58.593Z,14.50
2023-02-19T09:27:25.267Z,13.33
2023-02-19T09:29:51.929Z,13.90
2023-02-19T09:32:19.307Z,15.68
2023-02-19T09:34:46.178Z,14.73
2023-02-19T09:37:12.838Z,14.80
2023-02-19T09:39:39.439Z,17.47
2023-02-19T09:42:19.585Z,12.45
2023-02-19T09:44:50.168Z,16.92
2023-02-19T09:47:31.952Z,10.80
2023-02-19T09:50:08.930Z,9.10
2023-02-19T09:52:45.313Z,11.47
2023-02-19T09:55:19.357Z,9.25
2023-02-19T09:57:47.272Z,9.52
2023-02-19T10:00:26.689Z,7.95
2023-02-19T10:02:56.534Z,11.38
2023-02-19T10:05:24.565Z,6.37
2023-02-19T10:08:01.582Z,9.07
2023-02-19T10:10:36.806Z,4.90
2023-02-19T10:13:28.489Z,8.57
2023-02-19T10:16:02.115Z,3.63
2023-02-19T10:18:42.600Z,4.60
2023-02-19T10:21:21.622Z,2.38
2023-02-19T10:23:53.604Z,3.38
2023-02-19T10:26:20.301Z,2.40
2023-02-19T10:28:47.020Z,4.32
2023-02-19T10:31:35.946Z,2.87
2023-02-19T10:34:03.033Z,7.38
2023-02-19T10:36:33.790Z,2.25
2023-02-19T10:39:03.914Z,2.05
2023-02-19T10:41:31.072Z,3.97
2023-02-19T10:44:05.319Z,3.93
2023-02-19T10:46:35.708Z,5.65
2023-02-19T10:49:06.340Z,10.07
2023-02-19T10:51:41.055Z,8.45
2023-02-19T10:54:07.874Z,4.05
2023-02-19T10:56:49.268Z,2.90
2023-02-19T10:59:25.482Z,2.88
2023-02-19T11:02:17.076Z,5.40
2023-02-19T11:05:04.006Z,2.30
2023-02-19T11:07:31.143Z,3.75
2023-02-19T11:09:59.440Z,2.57
2023-02-19T11:12:29.908Z,2.30
2023-02-19T11:14:57.118Z,3.97
2023-02-19T11:17:25.636Z,4.18
2023-02-19T11:19:58.634Z,3.28
2023-02-19T11:22:39.006Z,3.47
2023-02-19T11:25:14.894Z,3.40
2023-02-19T11:28:08.521Z,3.97
2023-02-19T11:30:46.205Z,5.97
2023-02-19T11:33:33.120Z,2.80
2023-02-19T11:36:23.964Z,2.80
2023-02-19T11:38:50.706Z,1.90
2023-02-19T11:41:55.580Z,2.17
2023-02-19T11:47:26.295Z,3.37
2023-02-19T11:50:11.442Z,3.95
2023-02-19T11:53:15.764Z,2.20
2023-02-19T11:56:03.624Z,4.65
2023-02-19T11:58:59.510Z,9.50
2023-02-19T12:01:53.901Z,2.67
2023-02-19T12:04:26.624Z,1.52
2023-02-19T12:07:11.985Z,1.65
2023-02-19T12:09:47.509Z,1.20
2023-02-19T12:12:37.857Z,2.15
2023-02-19T12:15:13.373Z,2.00
2023-02-19T12:17:43.042Z,4.32
2023-02-19T12:20:32.862Z,1.85
2023-02-19T12:23:24.417Z,2.08
2023-02-19T12:25:53.896Z,2.40
2023-02-19T12:28:20.422Z,1.60
2023-02-19T12:31:25.329Z,1.85
2023-02-19T12:34:04.230Z,4.40
2023-02-19T12:36:50.926Z,2.33
2023-02-19T12:40:02.373Z,2.88
2023-02-19T12:43:07.834Z,2.30
2023-02-19T12:45:59.118Z,2.70
2023-02-19T12:48:36.323Z,1.40
2023-02-19T12:51:12.442Z,1.73
2023-02-19T12:53:45.965Z,2.10
2023-02-19T12:56:21.200Z,3.20
2023-02-19T12:58:56.688Z,2.42
2023-02-19T13:01:28.680Z,2.05
2023-02-19T13:04:23.401Z,2.42
2023-02-19T13:07:05.527Z,1.92
2023-02-19T13:10:12.780Z,1.40
2023-02-19T13:12:43.426Z,3.25
2023-02-19T13:15:21.464Z,1.65
2023-02-19T13:17:52.258Z,2.90
2023-02-19T13:20:35.436Z,2.70
2023-02-19T13:23:33.331Z,2.67
2023-02-19T13:26:17.966Z,2.92
2023-02-19T13:29:18.699Z,2.97
2023-02-19T13:32:16.998Z,1.75
2023-02-19T13:35:21.078Z,2.70
2023-02-19T13:37:51.693Z,2.13
2023-02-19T13:40:37.235Z,2.35
2023-02-19T13:43:23.145Z,3.10
2023-02-19T13:45:56.063Z,2.75
2023-02-19T13:48:30.344Z,3.88
2023-02-19T13:51:15.853Z,2.30
2023-02-19T13:53:42.660Z,2.47
2023-02-19T13:56:30.255Z,2.80
2023-02-19T13:59:16.384Z,1.45
2023-02-19T14:01:55.050Z,2.00
2023-02-19T14:04:46.213Z,1.90
2023-02-19T14:07:13.046Z,3.08
2023-02-19T14:09:45.871Z,2.50
2023-02-19T14:12:16.240Z,1.40
2023-02-19T14:14:46.533Z,1.95
2023-02-19T14:17:41.257Z,1.47
2023-02-19T14:20:17.136Z,3.55
2023-02-19T14:22:52.890Z,1.45
2023-02-19T14:25:22.518Z,2.17
2023-02-19T14:27:50.588Z,3.15
2023-02-19T14:30:17.863Z,1.27
2023-02-19T14:32:54.525Z,1.52
2023-02-19T14:35:25.276Z,2.17
2023-02-19T14:37:55.393Z,1.30
2023-02-19T14:40:38.351Z,2.55
2023-02-19T14:43:09.223Z,1.23
2023-02-19T14:45:44.000Z,1.90
2023-02-19T14:48:35.239Z,6.40
2023-02-19T14:51:11.333Z,5.75
2023-02-19T14:53:42.068Z,2.92
2023-02-19T14:56:21.352Z,1.63
2023-02-19T14:59:07.180Z,1.63
2023-02-19T15:01:33.913Z,1.10
2023-02-19T15:04:01.034Z,0.80
2023-02-19T15:06:28.730Z,2.30
2023-02-19T15:09:00.188Z,1.63
2023-02-19T15:11:29.962Z,2.47
2023-02-19T15:14:02.957Z,0.63
2023-02-19T15:16:32.524Z,0.95
2023-02-19T15:19:00.379Z,1.00
2023-02-19T15:21:32.839Z,2.40
2023-02-19T15:24:02.907Z,0.80
2023-02-19T15:26:35.978Z,1.73
2023-02-19T15:29:17.120Z,1.80
2023-02-19T15:32:00.237Z,1.08
2023-02-19T15:34:32.317Z,1.67
2023-02-19T15:37:02.123Z,1.50
2023-02-19T15:39:39.820Z,2.38
2023-02-19T15:42:08.031Z,3.75
2023-02-19T15:45:22.700Z,1.50
2023-02-19T15:48:02.504Z,3.23
2023-02-19T15:50:31.751Z,2.85
2023-02-19T15:53:09.443Z,2.85
2023-02-19T15:55:56.102Z,2.10
2023-02-19T15:58:33.076Z,1.25
2023-02-19T16:01:14.878Z,1.00
2023-02-19T16:03:42.182Z,2.05
2023-02-19T16:06:15.181Z,0.80
2023-02-19T16:09:02.275Z,4.07
2023-02-19T16:11:29.009Z,1.77
2023-02-19T16:14:19.370Z,1.10
2023-02-19T16:16:49.017Z,1.05
2023-02-19T16:19:21.987Z,1.65
2023-02-19T16:21:48.605Z,1.90
2023-02-19T16:24:35.316Z,2.47
2023-02-19T16:27:04.606Z,1.37
2023-02-19T16:29:33.522Z,1.27
2023-02-19T16:32:07.646Z,1.10
2023-02-19T16:34:40.331Z,1.27
2023-02-19T16:37:32.137Z,1.35
2023-02-19T16:40:41.765Z,1.30
2023-02-19T16:43:14.314Z,3.47
2023-02-19T16:45:45.365Z,1.88
2023-02-19T16:48:12.821Z,3.58
2023-02-19T16:50:46.306Z,2.72
2023-02-19T16:53:22.495Z,2.27
2023-02-19T16:55:49.134Z,3.10
2023-02-19T16:58:15.657Z,2.35
2023-02-19T17:00:42.345Z,1.88
2023-02-19T17:03:11.942Z,2.60
2023-02-19T17:05:39.837Z,2.83
2023-02-19T17:08:29.001Z,3.05
2023-02-19T17:10:59.139Z,3.28
2023-02-19T17:13:25.764Z,4.57
2023-02-19T17:15:52.299Z,3.60
2023-02-19T17:18:18.949Z,5.63
2023-02-19T17:20:51.309Z,4.10
2023-02-19T17:23:17.958Z,3.45
2023-02-19T17:25:44.512Z,2.92
2023-02-19T17:28:11.302Z,4.75
2023-02-19T17:30:39.983Z,3.30
2023-02-19T17:33:07.215Z,3.05
2023-02-19T17:35:36.230Z,4.38
2023-02-19T17:38:09.541Z,3.78
2023-02-19T17:40:37.338Z,2.22
2023-02-19T17:43:05.195Z,2.80
2023-02-19T17:45:32.137Z,3.28
2023-02-19T17:47:59.140Z,2.13
2023-02-19T17:50:29.263Z,2.20
2023-02-19T17:52:56.606Z,4.70
2023-02-19T17:55:23.456Z,3.47
2023-02-19T17:57:51.438Z,2.78
2023-02-19T18:00:21.357Z,2.78
2023-02-19T18:02:48.232Z,3.38
2023-02-19T18:05:14.811Z,2.72
2023-02-19T18:07:41.799Z,2.10
2023-02-19T18:10:08.702Z,2.30
2023-02-19T18:12:38.457Z,3.35
2023-02-19T18:15:08.769Z,2.22
2023-02-19T18:17:35.599Z,4.43
2023-02-19T18:20:04.507Z,2.83
2023-02-19T18:22:32.211Z,2.50
2023-02-19T18:24:59.130Z,1.52
2023-02-19T18:27:25.829Z,2.25
2023-02-19T18:29:54.842Z,5.45
2023-02-19T18:32:23.403Z,1.93
2023-02-19T18:34:57.177Z,2.70
2023-02-19T18:37:25.514Z,2.20
2023-02-19T18:39:52.623Z,1.17
2023-02-19T18:42:21.473Z,2.47
2023-02-19T18:44:49.430Z,1.90
2023-02-19T18:47:17.253Z,2.35
2023-02-19T18:49:48.449Z,2.20
2023-02-19T18:52:16.022Z,1.80
2023-02-19T18:54:43.366Z,2.08
2023-02-19T18:57:09.865Z,1.90
2023-02-19T18:59:36.733Z,2.00
2023-02-19T19:02:06.388Z,1.95
2023-02-19T19:04:32.921Z,1.15
2023-02-19T19:06:59.608Z,3.47
2023-02-19T19:09:26.360Z,1.70
2023-02-19T19:11:52.903Z,2.08
2023-02-19T19:14:19.744Z,1.35
2023-02-19T19:16:46.330Z,1.98
2023-02-19T19:19:13.941Z,4.00
2023-02-19T19:21:40.590Z,1.50
2023-02-19T19:24:10.387Z,3.33
2023-02-19T19:29:30.436Z,2.47
2023-02-19T19:31:57.380Z,3.08
2023-02-19T19:34:31.622Z,2.80
2023-02-19T19:37:25.742Z,3.05
2023-02-19T19:39:56.535Z,4.57
2023-02-19T19:42:23.283Z,3.67
2023-02-19T19:44:49.848Z,3.05
2023-02-19T19:47:16.539Z,2.23
2023-02-19T19:49:59.342Z,3.50
2023-02-19T19:52:25.891Z,2.53
2023-02-19T19:54:54.368Z,4.95
2023-02-19T19:57:21.210Z,2.55
2023-02-19T19:59:51.377Z,3.77
2023-02-19T20:02:18.782Z,3.05
2023-02-19T20:04:45.488Z,3.13
2023-02-19T20:07:14.709Z,2.30
2023-02-19T20:09:43.953Z,2.80
2023-02-19T20:12:11.316Z,2.40
2023-02-19T20:14:37.805Z,3.63
2023-02-19T20:17:05.045Z,5.55
2023-02-19T20:19:31.546Z,2.42
2023-02-19T20:21:58.171Z,3.67
2023-02-19T20:24:28.896Z,1.80
2023-02-19T20:27:00.325Z,3.72
2023-02-19T20:29:29.044Z,2.55
2023-02-19T20:32:00.118Z,3.17
2023-02-19T20:34:30.525Z,4.95
2023-02-19T20:36:57.716Z,3.83
2023-02-19T20:39:28.825Z,3.35
2023-02-19T20:41:57.492Z,2.97
2023-02-19T20:44:25.283Z,2.67
2023-02-19T20:46:56.037Z,3.83
2023-02-19T20:49:25.097Z,3.07
2023-02-19T20:51:58.264Z,2.72
2023-02-19T20:54:30.304Z,4.13
2023-02-19T20:57:01.214Z,4.30
2023-02-19T20:59:31.046Z,2.33
2023-02-19T21:02:06.987Z,3.50
2023-02-19T21:04:33.668Z,3.30
2023-02-19T21:07:00.371Z,5.85
2023-02-19T21:09:27.023Z,5.03
2023-02-19T21:11:53.854Z,3.90
2023-02-19T21:14:20.495Z,3.67
2023-02-19T21:16:47.432Z,5.28
2023-02-19T21:19:14.072Z,5.20
2023-02-19T21:21:40.743Z,6.43
2023-02-19T21:24:09.445Z,5.30
2023-02-19T21:26:38.678Z,4.23
2023-02-19T21:29:06.400Z,6.50
2023-02-19T21:31:41.470Z,5.47
2023-02-19T21:34:10.528Z,6.65
2023-02-19T21:36:37.261Z,4.43
2023-02-19T21:39:05.751Z,5.03
2023-02-19T21:41:35.233Z,3.30
2023-02-19T21:44:02.001Z,6.18
2023-02-19T21:46:28.942Z,4.22
2023-02-19T21:48:56.794Z,6.82
2023-02-19T21:51:29.448Z,5.43
2023-02-19T21:53:59.444Z,8.60
2023-02-19T21:56:28.848Z,3.75
2023-02-19T21:58:55.939Z,4.95
2023-02-19T22:01:34.873Z,4.97
2023-02-19T22:04:01.738Z,7.57
2023-02-19T22:06:30.640Z,6.35
2023-02-19T22:09:18.328Z,4.80
2023-02-19T22:11:45.163Z,5.43
2023-02-19T22:14:14.684Z,4.45
2023-02-19T22:16:41.239Z,8.13
2023-02-19T22:19:07.911Z,5.13
2023-02-19T22:21:43.665Z,6.10
2023-02-19T22:24:22.017Z,6.30
2023-02-19T22:26:50.753Z,4.95
2023-02-19T22:29:19.903Z,8.17
2023-02-19T22:31:46.799Z,6.25
2023-02-19T22:34:16.505Z,4.93
2023-02-19T22:36:43.539Z,4.47
2023-02-19T22:39:22.028Z,4.47
2023-02-19T22:41:48.624Z,5.57
2023-02-19T22:44:15.539Z,7.07
2023-02-19T22:46:51.129Z,6.03
2023-02-19T22:49:17.827Z,6.45
2023-02-19T22:51:55.035Z,6.18
2023-02-19T22:54:27.094Z,5.07
2023-02-19T22:56:54.564Z,5.30
2023-02-19T22:59:22.078Z,6.95
2023-02-19T23:01:49.796Z,5.35
2023-02-19T23:04:17.038Z,6.28
2023-02-19T23:06:45.606Z,7.30
2023-02-19T23:09:23.667Z,7.95
2023-02-19T23:11:50.917Z,9.43
2023-02-19T23:14:19.884Z,6.90
2023-02-19T23:16:46.712Z,9.55
2023-02-19T23:19:15.611Z,7.90
2023-02-19T23:21:44.333Z,8.07
2023-02-19T23:24:12.479Z,8.30
2023-02-19T23:26:47.110Z,11.98
2023-02-19T23:29:20.577Z,12.25
2023-02-19T23:31:47.275Z,9.90
2023-02-19T23:34:14.124Z,9.60
2023-02-19T23:36:44.416Z,8.63
2023-02-19T23:39:13.495Z,9.57
2023-02-19T23:41:46.554Z,11.30
2023-02-19T23:44:14.156Z,9.67
2023-02-19T23:46:40.834Z,8.63
2023-02-19T23:49:07.499Z,13.52
2023-02-19T23:51:34.316Z,11.40
2023-02-19T23:54:00.920Z,10.30
2023-02-19T23:56:29.534Z,9.10
2023-02-19T23:58:56.582Z,10.52
